KCKV/CKV METAR and TAF weather

Enter ICAO airport designator
Station Type Date Time Source
KCKV METAR 2022/11/30 10:52 UTC NOAA

KCKV 301052Z AUTO 32019G26KT 10SM OVC019 03/M02 A3008 RMK AO2 PK WND 32033/1032 SLP185 T00331017


Station Type Date Time Source
KCKV Decoded METAR 2022/11/30 10:52 UTC NOAA

CLARKSVILLE OUTLAW FIELD, TN, United States (KCKV) 36-37N 87-25W 165M
Nov 30, 2022 - 05:52 AM EST / 2022.11.30 1052 UTC
Wind: from the NW (320 degrees) at 22 MPH (19 KT) gusting to 30 MPH (26 KT):0
Visibility: 10 mile(s):0
Sky conditions: overcast
Temperature: 37.9 F (3.3 C)
Dew Point: 28.9 F (-1.7 C)
Relative Humidity: 69%
Pressure (altimeter): 30.08 in. Hg (1018 hPa)
ob: KCKV 301052Z AUTO 32019G26KT 10SM OVC019 03/M02 A3008 RMK AO2 PK WND 32033/1032 SLP185 T00331017
cycle: 11

Station Type Date Time Source
KCKV TAF 2022/11/30 11:15 UTC NOAA

TAF
AMD KCKV 301113Z 3011/0106 32019G30KT P6SM OVC019
FM301700 32014G24KT P6SM SKC
FM010000 33005KT P6SM SKC

Example: see airport list